createdAt,value
2023-03-24T00:01:58.931Z,8.10
2023-03-24T00:04:30.169Z,6.50
2023-03-24T00:07:02.254Z,8.90
2023-03-24T00:09:33.072Z,6.50
2023-03-24T00:12:05.112Z,9.00
2023-03-24T00:14:35.771Z,6.60
2023-03-24T00:17:10.693Z,7.30
2023-03-24T00:19:45.698Z,7.40
2023-03-24T00:22:16.422Z,8.00
2023-03-24T00:24:47.521Z,8.40
2023-03-24T00:27:19.241Z,6.80
2023-03-24T00:29:49.844Z,6.60
2023-03-24T00:32:20.629Z,6.70
2023-03-24T00:34:54.743Z,6.20
2023-03-24T00:37:25.407Z,5.60
2023-03-24T00:39:56.078Z,5.90
2023-03-24T00:42:26.765Z,5.40
2023-03-24T00:44:57.500Z,6.10
2023-03-24T00:47:29.507Z,7.20
2023-03-24T00:50:02.685Z,9.50
2023-03-24T00:52:34.779Z,5.70
2023-03-24T00:55:09.437Z,5.60
2023-03-24T00:57:41.261Z,6.10
2023-03-24T01:00:17.383Z,6.40
2023-03-24T01:02:54.174Z,6.30
2023-03-24T01:05:28.482Z,6.10
2023-03-24T01:08:05.445Z,6.30
2023-03-24T01:10:43.247Z,5.40
2023-03-24T01:13:16.064Z,7.40
2023-03-24T01:15:47.101Z,5.60
2023-03-24T01:18:18.923Z,7.10
2023-03-24T01:20:50.872Z,4.80
2023-03-24T01:23:26.300Z,6.20
2023-03-24T01:25:59.699Z,7.00
2023-03-24T01:28:30.599Z,6.90
2023-03-24T01:31:01.276Z,5.70
2023-03-24T01:33:32.190Z,5.00
2023-03-24T01:36:02.886Z,5.30
2023-03-24T01:38:33.491Z,6.10
2023-03-24T01:41:06.158Z,5.00
2023-03-24T01:43:38.259Z,6.30
2023-03-24T01:46:24.816Z,5.70
2023-03-24T01:49:10.483Z,8.70
2023-03-24T01:51:44.771Z,5.80
2023-03-24T01:54:33.766Z,5.80
2023-03-24T01:57:11.864Z,5.70
2023-03-24T01:59:49.211Z,6.90
2023-03-24T02:02:43.240Z,5.70
2023-03-24T02:05:16.208Z,4.80
2023-03-24T02:08:03.466Z,5.10
2023-03-24T02:10:37.332Z,4.40
2023-03-24T02:13:13.920Z,5.90
2023-03-24T02:16:05.413Z,5.00
2023-03-24T02:27:48.793Z,6.80
2023-03-24T02:31:17.061Z,5.30
2023-03-24T02:34:05.054Z,5.00
2023-03-24T02:37:30.205Z,5.60
2023-03-24T02:41:07.681Z,6.10
2023-03-24T02:45:14.918Z,5.70
2023-03-24T02:48:21.395Z,6.00
2023-03-24T02:55:33.846Z,6.10
2023-03-24T02:58:47.904Z,5.30
2023-03-24T03:01:58.885Z,7.00
2023-03-24T03:05:24.401Z,7.10
2023-03-24T03:08:18.564Z,9.10
2023-03-24T03:11:05.463Z,7.50
2023-03-24T03:14:12.081Z,7.90
2023-03-24T03:17:01.960Z,7.50
2023-03-24T03:19:52.380Z,8.00
2023-03-24T03:22:44.366Z,8.50
2023-03-24T03:26:15.682Z,7.60
2023-03-24T03:29:53.167Z,9.30
2023-03-24T03:32:34.505Z,9.70
2023-03-24T03:35:30.031Z,9.30
2023-03-24T03:38:36.719Z,11.50
2023-03-24T03:45:59.652Z,9.70
2023-03-24T03:49:26.807Z,13.60
2023-03-24T03:52:20.849Z,12.10
2023-03-24T03:55:25.813Z,10.90
2023-03-24T03:58:31.796Z,11.20
2023-03-24T04:05:06.619Z,11.30
2023-03-24T04:08:08.118Z,12.90
2023-03-24T04:15:10.909Z,14.60
2023-03-24T04:18:28.228Z,14.20
2023-03-24T04:21:33.688Z,15.70
2023-03-24T04:24:57.836Z,16.60
2023-03-24T04:31:58.347Z,11.60
2023-03-24T04:34:54.936Z,14.20
2023-03-24T04:37:39.184Z,13.60
2023-03-24T04:41:14.715Z,17.40
2023-03-24T04:44:22.595Z,14.70
2023-03-24T04:47:55.713Z,15.00
2023-03-24T04:51:24.037Z,15.00
2023-03-24T04:59:28.889Z,16.00
2023-03-24T05:03:21.014Z,15.70
2023-03-24T05:06:19.540Z,17.30
2023-03-24T05:09:16.433Z,15.50
2023-03-24T05:11:50.223Z,13.20
2023-03-24T05:17:45.044Z,16.60
2023-03-24T05:21:16.055Z,14.40
2023-03-24T05:28:54.370Z,17.40
2023-03-24T05:31:27.101Z,13.90
2023-03-24T05:34:27.700Z,14.30
2023-03-24T05:38:47.475Z,15.00
2023-03-24T05:42:36.503Z,15.10
2023-03-24T05:46:18.665Z,14.40
2023-03-24T05:49:30.791Z,14.10
2023-03-24T06:01:55.390Z,11.40
2023-03-24T06:04:59.714Z,13.80
2023-03-24T06:08:01.879Z,14.20
2023-03-24T06:10:39.038Z,13.50
2023-03-24T06:13:10.810Z,12.80
2023-03-24T06:23:17.301Z,11.10
2023-03-24T06:30:30.962Z,13.10
2023-03-24T06:33:42.995Z,12.90
2023-03-24T06:37:16.048Z,13.70
2023-03-24T06:40:24.933Z,12.80
2023-03-24T06:43:50.839Z,11.60
2023-03-24T06:46:49.829Z,12.90
2023-03-24T06:58:44.372Z,11.30
2023-03-24T07:01:39.793Z,10.50
2023-03-24T07:04:56.403Z,11.10
2023-03-24T07:11:02.511Z,9.30
2023-03-24T07:17:45.552Z,10.10
2023-03-24T07:20:40.446Z,11.30
2023-03-24T07:24:04.144Z,9.50
2023-03-24T07:28:00.561Z,12.60
2023-03-24T07:30:39.912Z,9.20
2023-03-24T07:33:12.950Z,9.50
2023-03-24T07:35:50.902Z,11.70
2023-03-24T07:38:37.678Z,9.60
2023-03-24T07:41:15.760Z,10.70
2023-03-24T07:43:52.877Z,9.60
2023-03-24T07:46:27.745Z,8.90
2023-03-24T07:49:05.724Z,12.10
2023-03-24T07:51:40.105Z,8.10
2023-03-24T07:54:30.248Z,9.70
2023-03-24T07:57:02.732Z,8.30
2023-03-24T07:59:36.578Z,10.70
2023-03-24T08:02:23.101Z,8.60
2023-03-24T08:05:03.329Z,10.60
2023-03-24T08:07:57.944Z,9.10
2023-03-24T08:11:01.709Z,8.90
2023-03-24T08:13:35.095Z,9.60
2023-03-24T08:16:05.940Z,8.90
2023-03-24T08:18:43.491Z,9.30
2023-03-24T08:21:14.076Z,9.90
2023-03-24T08:23:44.702Z,10.30
2023-03-24T08:26:18.396Z,8.40
2023-03-24T08:28:50.002Z,10.70
2023-03-24T08:31:22.735Z,10.20
2023-03-24T08:33:55.843Z,9.90
2023-03-24T08:36:27.202Z,9.30
2023-03-24T08:38:58.522Z,9.40
2023-03-24T08:41:35.459Z,6.90
2023-03-24T08:44:09.010Z,7.70
2023-03-24T08:46:39.763Z,7.40
2023-03-24T08:49:10.504Z,8.60
2023-03-24T08:51:41.567Z,7.80
2023-03-24T08:54:13.139Z,8.30
2023-03-24T08:56:43.873Z,8.90
2023-03-24T08:59:15.907Z,8.20
2023-03-24T09:01:46.533Z,8.30
2023-03-24T09:04:17.218Z,8.70
2023-03-24T09:06:47.938Z,8.10
2023-03-24T09:09:18.552Z,7.10
2023-03-24T09:11:49.471Z,9.20
2023-03-24T09:14:20.055Z,9.30
2023-03-24T09:16:51.736Z,8.00
2023-03-24T09:19:22.329Z,7.90
2023-03-24T09:21:53.079Z,9.30
2023-03-24T09:24:23.600Z,8.20
2023-03-24T09:26:56.332Z,9.00
2023-03-24T09:29:28.025Z,9.10
2023-03-24T09:31:59.437Z,8.50
2023-03-24T09:34:31.112Z,8.50
2023-03-24T09:37:04.669Z,8.60
2023-03-24T09:39:38.004Z,8.60
2023-03-24T09:42:09.747Z,7.60
2023-03-24T09:44:45.838Z,8.70
2023-03-24T09:47:28.517Z,10.50
2023-03-24T09:50:41.286Z,9.60
2023-03-24T09:53:35.105Z,8.10
2023-03-24T09:56:14.821Z,7.50
2023-03-24T09:58:49.707Z,7.10
2023-03-24T10:01:54.743Z,9.20
2023-03-24T10:04:28.733Z,6.70
2023-03-24T10:07:31.398Z,7.40
2023-03-24T10:10:04.060Z,8.80
2023-03-24T10:12:40.958Z,8.20
2023-03-24T10:15:30.862Z,6.80
2023-03-24T10:18:15.232Z,7.40
2023-03-24T10:20:58.422Z,6.90
2023-03-24T10:23:44.520Z,8.00
2023-03-24T10:26:18.534Z,6.80
2023-03-24T10:28:53.417Z,7.60
2023-03-24T10:31:31.728Z,6.80
2023-03-24T10:34:02.695Z,7.50
2023-03-24T10:36:36.437Z,7.30
2023-03-24T10:41:48.836Z,7.90
2023-03-24T10:44:20.516Z,8.30
2023-03-24T10:46:57.970Z,7.60
2023-03-24T10:49:55.316Z,6.10
2023-03-24T10:53:23.743Z,6.90
2023-03-24T10:57:00.895Z,7.40
2023-03-24T11:00:34.978Z,6.30
2023-03-24T11:04:06.567Z,7.80
2023-03-24T11:07:21.567Z,10.50
2023-03-24T11:10:03.974Z,6.90
2023-03-24T11:12:39.269Z,5.50
2023-03-24T11:15:24.500Z,6.30
2023-03-24T11:17:58.344Z,6.70
2023-03-24T11:20:35.996Z,6.10
2023-03-24T11:23:22.133Z,6.70
2023-03-24T11:26:08.138Z,7.50
2023-03-24T11:28:43.301Z,6.90
2023-03-24T11:31:24.995Z,6.00
2023-03-24T11:34:35.581Z,5.40
2023-03-24T11:37:23.481Z,8.00
2023-03-24T11:40:17.255Z,4.20
2023-03-24T11:43:01.885Z,5.10
2023-03-24T11:45:42.767Z,5.60
2023-03-24T11:48:26.995Z,4.20
2023-03-24T11:51:00.969Z,5.70
2023-03-24T11:53:47.402Z,5.30
2023-03-24T11:56:33.306Z,4.70
2023-03-24T11:59:36.749Z,4.60
2023-03-24T12:02:49.092Z,4.50
2023-03-24T12:05:39.724Z,6.10
2023-03-24T12:15:27.296Z,6.70
2023-03-24T12:18:02.234Z,5.00
2023-03-24T12:20:39.367Z,4.80
2023-03-24T12:23:36.476Z,5.20
2023-03-24T12:26:26.720Z,5.40
2023-03-24T12:29:35.845Z,4.70
2023-03-24T12:32:43.673Z,5.70
2023-03-24T12:35:49.325Z,5.60
2023-03-24T12:38:32.831Z,4.50
2023-03-24T12:41:26.702Z,3.70
2023-03-24T12:44:09.694Z,4.70
2023-03-24T12:46:48.386Z,4.10
2023-03-24T12:50:19.359Z,5.60
2023-03-24T12:53:27.093Z,4.30
2023-03-24T12:56:11.202Z,6.50
2023-03-24T12:59:20.961Z,4.40
2023-03-24T13:09:26.828Z,4.70
2023-03-24T13:12:22.695Z,5.00
2023-03-24T13:15:53.148Z,4.30
2023-03-24T13:19:01.008Z,3.90
2023-03-24T13:21:35.771Z,4.90
2023-03-24T13:24:15.441Z,5.80
2023-03-24T13:27:09.187Z,4.90
2023-03-24T13:30:08.803Z,7.30
2023-03-24T13:32:52.894Z,6.40
2023-03-24T13:36:06.470Z,4.80
2023-03-24T13:40:00.357Z,7.90
2023-03-24T13:44:15.765Z,6.30
2023-03-24T13:47:57.703Z,6.60
2023-03-24T13:54:41.211Z,14.00
2023-03-24T13:57:52.349Z,9.00
2023-03-24T14:00:51.412Z,8.10
2023-03-24T14:04:28.751Z,7.50
2023-03-24T14:07:21.708Z,8.00
2023-03-24T14:10:21.647Z,7.20
2023-03-24T14:13:02.160Z,8.50
2023-03-24T14:15:55.383Z,7.90
2023-03-24T14:19:21.329Z,6.10
2023-03-24T14:22:32.197Z,8.50
2023-03-24T14:25:09.318Z,6.80
2023-03-24T14:28:07.603Z,6.40
2023-03-24T14:30:53.024Z,7.50
2023-03-24T14:35:21.276Z,8.20
2023-03-24T14:38:37.288Z,6.90
2023-03-24T14:41:44.810Z,7.90
2023-03-24T14:44:15.975Z,6.50
2023-03-24T14:46:52.278Z,6.60
2023-03-24T14:49:25.224Z,8.00
2023-03-24T14:52:19.878Z,6.90
2023-03-24T14:54:59.454Z,8.60
2023-03-24T14:59:03.600Z,6.20
2023-03-24T15:01:37.214Z,5.80
2023-03-24T15:04:11.677Z,8.80
2023-03-24T15:07:11.224Z,8.70
2023-03-24T15:10:02.131Z,9.90
2023-03-24T15:12:36.761Z,8.90
2023-03-24T15:15:23.312Z,8.30
2023-03-24T15:18:24.021Z,7.20
2023-03-24T15:20:58.963Z,6.70
2023-03-24T15:24:02.690Z,7.00
2023-03-24T15:26:34.710Z,8.50
2023-03-24T15:29:09.643Z,6.80
2023-03-24T15:31:42.479Z,9.80
2023-03-24T15:34:36.744Z,9.00
2023-03-24T15:37:56.953Z,8.10
2023-03-24T15:40:39.401Z,9.80
2023-03-24T15:44:07.814Z,12.00
2023-03-24T15:47:28.070Z,9.50
2023-03-24T15:50:53.145Z,10.40
2023-03-24T15:57:09.228Z,8.20
2023-03-24T15:59:45.154Z,9.50
2023-03-24T16:03:19.416Z,10.90
2023-03-24T16:06:59.298Z,12.00
2023-03-24T16:10:08.048Z,9.50
2023-03-24T16:13:31.318Z,9.20
2023-03-24T16:16:48.385Z,9.70
2023-03-24T16:20:13.248Z,9.20
2023-03-24T16:23:50.448Z,8.50
2023-03-24T16:26:43.902Z,8.00
2023-03-24T16:29:25.998Z,8.60
2023-03-24T16:31:59.328Z,9.80
2023-03-24T16:34:32.339Z,12.10
2023-03-24T16:37:03.112Z,12.30
2023-03-24T16:39:33.689Z,13.20
2023-03-24T16:42:04.509Z,15.10
2023-03-24T16:44:35.357Z,21.10
2023-03-24T16:47:11.200Z,22.10
2023-03-24T16:50:03.344Z,23.60
2023-03-24T16:52:51.370Z,25.30
2023-03-24T16:56:04.512Z,31.50
2023-03-24T16:59:15.355Z,26.80
2023-03-24T17:02:07.058Z,17.90
2023-03-24T17:04:41.782Z,21.90
2023-03-24T17:07:33.082Z,17.90
2023-03-24T17:10:40.510Z,16.30
2023-03-24T17:13:46.395Z,16.00
2023-03-24T17:16:50.285Z,15.30
2023-03-24T17:19:58.363Z,16.00
2023-03-24T17:22:46.286Z,13.50
2023-03-24T17:26:11.356Z,13.60
2023-03-24T17:30:07.789Z,13.80
2023-03-24T17:34:08.639Z,11.20
2023-03-24T17:37:32.220Z,11.50
2023-03-24T17:40:49.099Z,18.70
2023-03-24T17:43:39.313Z,16.70
2023-03-24T17:46:28.491Z,14.00
2023-03-24T17:50:03.270Z,11.60
2023-03-24T17:53:23.822Z,12.20
2023-03-24T17:56:53.633Z,12.80
2023-03-24T18:00:27.622Z,11.00
2023-03-24T18:03:53.056Z,11.90
2023-03-24T18:07:26.280Z,12.10
2023-03-24T18:10:57.098Z,11.20
2023-03-24T18:14:27.328Z,14.00
2023-03-24T18:17:38.152Z,12.30
2023-03-24T18:20:49.321Z,12.00
2023-03-24T18:26:42.601Z,12.10
2023-03-24T18:29:43.598Z,12.90
2023-03-24T18:32:22.582Z,14.00
2023-03-24T18:34:55.970Z,13.10
2023-03-24T18:37:29.820Z,11.90
2023-03-24T18:40:03.203Z,15.50
2023-03-24T18:42:37.428Z,15.10
2023-03-24T18:45:12.341Z,20.90
2023-03-24T18:47:50.023Z,17.40
2023-03-24T18:50:29.340Z,12.80
2023-03-24T18:53:04.728Z,12.20
2023-03-24T18:55:40.320Z,11.50
2023-03-24T18:58:22.188Z,13.00
2023-03-24T19:01:03.532Z,8.00
2023-03-24T19:03:39.638Z,8.40
2023-03-24T19:06:16.489Z,8.60
2023-03-24T19:08:53.984Z,8.30
2023-03-24T19:11:27.396Z,8.30
2023-03-24T19:14:00.967Z,9.80
2023-03-24T19:16:36.573Z,8.60
2023-03-24T19:19:10.969Z,9.30
2023-03-24T19:21:44.424Z,10.40
2023-03-24T19:24:23.256Z,11.00
2023-03-24T19:27:09.607Z,8.80
2023-03-24T19:29:42.554Z,10.00
2023-03-24T19:32:15.289Z,12.70
2023-03-24T19:34:49.575Z,12.90
2023-03-24T19:37:24.122Z,15.80
2023-03-24T19:40:07.897Z,16.20
2023-03-24T19:42:42.458Z,8.60
2023-03-24T19:45:19.957Z,10.10
2023-03-24T19:47:52.715Z,9.20
2023-03-24T19:50:24.832Z,10.90
2023-03-24T19:52:58.373Z,8.60
2023-03-24T19:55:31.526Z,9.90
2023-03-24T19:58:06.027Z,7.80
2023-03-24T20:00:41.709Z,10.80
2023-03-24T20:03:13.477Z,9.60
2023-03-24T20:05:50.865Z,9.20
2023-03-24T20:08:32.290Z,5.60
2023-03-24T20:11:31.593Z,6.50
2023-03-24T20:14:06.939Z,7.00
2023-03-24T20:16:41.227Z,6.10
2023-03-24T20:19:15.647Z,6.70
2023-03-24T20:21:53.598Z,10.80
2023-03-24T20:24:27.825Z,12.00
2023-03-24T20:27:05.916Z,11.00
2023-03-24T20:29:39.868Z,12.10
2023-03-24T20:32:15.818Z,17.20
2023-03-24T20:35:12.470Z,16.00
2023-03-24T20:38:14.515Z,12.90
2023-03-24T20:41:11.090Z,8.70
2023-03-24T20:44:19.579Z,7.40
2023-03-24T20:47:46.932Z,7.60
2023-03-24T20:51:32.111Z,7.60
2023-03-24T20:54:47.954Z,7.30
2023-03-24T21:01:38.752Z,8.20
2023-03-24T21:04:50.722Z,11.90
2023-03-24T21:08:02.950Z,20.30
2023-03-24T21:11:00.120Z,14.80
2023-03-24T21:14:09.859Z,13.50
2023-03-24T21:21:08.586Z,6.60
2023-03-24T21:24:35.961Z,9.10
2023-03-24T21:27:35.992Z,10.50
2023-03-24T21:30:58.976Z,7.40
2023-03-24T21:34:25.257Z,8.60
2023-03-24T21:37:58.508Z,13.10
2023-03-24T21:41:10.354Z,8.00
2023-03-24T21:44:23.522Z,8.40
2023-03-24T21:47:45.711Z,9.50
2023-03-24T21:51:18.375Z,16.00
2023-03-24T21:54:36.292Z,9.90
2023-03-24T21:58:04.401Z,7.80
2023-03-24T22:01:19.465Z,8.70
2023-03-24T22:04:25.520Z,7.80
2023-03-24T22:07:23.367Z,5.60
2023-03-24T22:10:43.285Z,5.60
2023-03-24T22:14:07.417Z,9.90
2023-03-24T22:21:15.332Z,5.60
2023-03-24T22:24:38.543Z,6.20
2023-03-24T22:27:40.276Z,5.70
2023-03-24T22:30:37.343Z,6.90
2023-03-24T22:33:36.414Z,5.80
2023-03-24T22:36:42.345Z,6.70
2023-03-24T22:39:48.390Z,4.90
2023-03-24T22:43:03.475Z,5.00
2023-03-24T22:46:07.652Z,6.10
2023-03-24T22:49:20.365Z,4.90
2023-03-24T22:52:49.536Z,5.60
2023-03-24T22:55:58.294Z,5.90
2023-03-24T22:59:12.344Z,5.50
2023-03-24T23:02:15.432Z,6.60
2023-03-24T23:05:22.343Z,4.60
2023-03-24T23:08:29.270Z,5.70
2023-03-24T23:11:29.317Z,5.30
2023-03-24T23:14:34.395Z,4.00
2023-03-24T23:17:25.486Z,4.20
2023-03-24T23:20:26.302Z,5.70
2023-03-24T23:23:30.943Z,5.70
2023-03-24T23:26:48.380Z,5.60
2023-03-24T23:29:46.240Z,7.60
2023-03-24T23:32:52.355Z,6.60
2023-03-24T23:35:53.287Z,6.30
2023-03-24T23:39:12.404Z,6.30
2023-03-24T23:42:27.402Z,5.70
2023-03-24T23:45:47.320Z,6.40
2023-03-24T23:49:01.220Z,4.30
2023-03-24T23:55:27.256Z,7.20
2023-03-24T23:58:40.282Z,7.40
